Dd Catherwood — CZ5502 — position and weather

sailwx.info

Track history (hours):
 
Tides and Currents Weather Stations Pressure Air Temp Water Temp Dewpoint Dewpoint Depression Visibility Wind Speed Wind Dir Waves Ship Positions

Dd Catherwood

Last reported at 2017-Oct-20 01:30 UTC. Time now 2017-Oct-20 01:46 UTC.
Position N 49°12' W 123°04'.

Length 21 m; draft 3.5 m.

Type: Towing. MMSI: 316006155.

Date/timePositionNaut miles runAvg speedWind from/ knotsBaromVisibWave heightAir tempDewpointWater temp
2017-Oct-20 01:30N 49°12' W 123°04'0 0.0
2017-Oct-20 01:00N 49°12' W 123°04'0 0.0
2017-Oct-20 00:30N 49°12' W 123°04'2 3.7
2017-Oct-20 00:01N 49°12' W 123°01'3 3.2
2017-Oct-19 23:05N 49°12' W 122°56'0 2.5
2017-Oct-19 23:00N 49°12' W 122°56'1 2.8
2017-Oct-19 22:30N 49°12' W 122°54'0 0.2
2017-Oct-19 22:00N 49°12' W 122°54'0 0.3
2017-Oct-19 21:29N 49°12' W 122°54'0 0.4
2017-Oct-19 21:00N 49°12' W 122°54'0 0.0
2017-Oct-19 20:30N 49°12' W 122°54'0 0.0
2017-Oct-19 20:00N 49°12' W 122°54'0 0.0
2017-Oct-19 19:30N 49°12' W 122°54'0 0.0
2017-Oct-19 19:00N 49°12' W 122°54'0 0.0
2017-Oct-19 18:30N 49°12' W 122°54'0 0.0
2017-Oct-19 18:00N 49°12' W 122°54'0 0.0
2017-Oct-19 17:30N 49°12' W 122°54'0 0.0
2017-Oct-19 17:00N 49°12' W 122°54'0 0.0
2017-Oct-19 16:30N 49°12' W 122°54'0 0.0
2017-Oct-19 16:00N 49°12' W 122°54'0 0.1
2017-Oct-19 15:30N 49°12' W 122°54'1 2.6
2017-Oct-19 14:59N 49°12' W 122°56'1 0.1
2017-Oct-19 08:03N 49°12' W 122°57'0 6.0
2017-Oct-19 07:59N 49°12' W 122°57'2 5.0
2017-Oct-19 07:30N 49°12' W 123°01'2 3.9
2017-Oct-19 07:00N 49°12' W 123°04'0 0.0
2017-Oct-19 06:30N 49°12' W 123°04'0 0.0
2017-Oct-19 06:00N 49°12' W 123°04'0 0.0
2017-Oct-19 05:30N 49°12' W 123°04'0 0.0
2017-Oct-19 05:00N 49°12' W 123°04'0 0.0
2017-Oct-19 04:30N 49°12' W 123°04'0 0.0
2017-Oct-18 09:21N 49°12' W 123°04'1 3.6
2017-Oct-18 09:00N 49°12' W 123°06'4 7.4
2017-Oct-18 08:31N 49°13' W 123°11'4 8.3
2017-Oct-18 08:00N 49°15' W 123°16'510.5
2017-Oct-18 07:30N 49°18' W 123°23'611.2
2017-Oct-18 07:00N 49°20' W 123°31'2 4.3
2017-Oct-18 06:30N 49°21' W 123°34'0 0.6
2017-Oct-18 06:00N 49°22' W 123°34'3 5.0
2017-Oct-18 05:30N 49°22' W 123°38'3 6.7
2017-Oct-18 05:00N 49°23' W 123°42'3 6.8
2017-Oct-18 04:30N 49°25' W 123°47'3 6.4
2017-Oct-18 04:00N 49°25' W 123°52'3 6.1
2017-Oct-18 03:30N 49°26' W 123°57'3 5.9
2017-Oct-18 03:00N 49°27' W 124°01'3 6.0
2017-Oct-18 02:30N 49°28' W 124°05'3 6.1
2017-Oct-18 02:00N 49°29' W 124°09'3 6.8
2017-Oct-18 01:30N 49°31' W 124°14'3 6.7
2017-Oct-18 01:00N 49°33' W 124°18'3 6.3
2017-Oct-18 00:30N 49°34' W 124°23'3 6.4
2017-Oct-18 00:00N 49°36' W 124°27'3 6.2
2017-Oct-17 23:30N 49°38' W 124°30'3 6.0
2017-Oct-17 23:00N 49°40' W 124°34'3 5.8
2017-Oct-17 22:30N 49°42' W 124°37'3 5.8
2017-Oct-17 22:00N 49°44' W 124°41'3 5.8
2017-Oct-17 21:30N 49°46' W 124°44'3 5.4
2017-Oct-17 21:00N 49°48' W 124°46'3 5.6
2017-Oct-17 20:30N 49°50' W 124°49'3 6.0
2017-Oct-17 20:00N 49°52' W 124°53'3 6.3
2017-Oct-17 19:30N 49°55' W 124°55'3 6.4
2017-Oct-17 19:00N 49°57' W 124°58'3 6.5
2017-Oct-17 18:30N 49°60' W 125°02'3 6.5
2017-Oct-17 18:00N 50°02' W 125°05'3 6.4
2017-Oct-17 17:30N 50°05' W 125°06'3 5.9
2017-Oct-17 17:00N 50°08' W 125°05'3 6.1
2017-Oct-17 16:30N 50°10' W 125°01'3 5.5
2017-Oct-17 16:00N 50°13' W 125°01'3 5.7
2017-Oct-17 15:30N 50°15' W 125°01'3 6.0
2017-Oct-17 15:00N 50°18' W 125°04'3 5.8
2017-Oct-17 14:30N 50°20' W 125°06'0 0.9
2017-Oct-17 14:00N 50°20' W 125°06'2 3.2
2017-Oct-17 13:30N 50°19' W 125°05'1 2.9
2017-Oct-17 13:00N 50°18' W 125°03'1 2.8
2017-Oct-17 12:30N 50°16' W 125°01'1 2.4
2017-Oct-17 12:00N 50°16' W 124°60'1 2.1
2017-Oct-17 11:30N 50°15' W 125°00'1 1.5
2017-Oct-17 11:00N 50°16' W 125°01'1 2.1
2017-Oct-17 10:30N 50°16' W 125°02'1 2.1
2017-Oct-17 10:00N 50°17' W 125°03'1 2.2
2017-Oct-17 09:30N 50°18' W 125°04'1 2.3
2017-Oct-17 09:00N 50°19' W 125°05'1 1.7
2017-Oct-17 08:30N 50°20' W 125°06'1 1.8
2017-Oct-17 08:00N 50°20' W 125°07'1 2.0
2017-Oct-17 07:30N 50°21' W 125°07'2 4.1
2017-Oct-17 07:00N 50°19' W 125°05'2 4.0
2017-Oct-17 06:30N 50°19' W 125°02'2 3.9
2017-Oct-17 06:00N 50°20' W 125°00'2 4.4
2017-Oct-17 05:31N 50°19' W 124°57'2 3.7
2017-Oct-17 05:00N 50°17' W 124°58'2 3.6
2017-Oct-17 04:30N 50°16' W 125°00'2 3.1
2017-Oct-17 04:00N 50°17' W 125°02'1 2.6
2017-Oct-17 03:30N 50°18' W 125°03'1 2.5
2017-Oct-17 03:00N 50°19' W 125°05'1 2.1
2017-Oct-17 02:30N 50°19' W 125°06'1 1.7
2017-Oct-17 02:00N 50°20' W 125°07'0 1.0
2017-Oct-17 01:30N 50°21' W 125°06'2 4.5
2017-Oct-17 01:00N 50°19' W 125°04'2 3.8
2017-Oct-17 00:30N 50°19' W 125°01'2 4.3
2017-Oct-17 00:01N 50°20' W 124°58'2 4.6
2017-Oct-16 23:30N 50°17' W 124°58'2 4.9
2017-Oct-16 23:00N 50°15' W 125°00'3 5.3
2017-Oct-16 22:30N 50°13' W 125°01'3 5.3
2017-Oct-16 22:00N 50°10' W 125°01'3 5.7
2017-Oct-16 21:30N 50°09' W 125°04'3 5.6
2017-Oct-16 21:00N 50°06' W 125°07'3 6.2
2017-Oct-16 20:30N 50°03' W 125°06'3 6.7
2017-Oct-16 20:00N 50°00' W 125°04'3 6.4
2017-Oct-16 19:30N 49°57' W 125°03'2 3.8
2017-Oct-16 19:00N 49°57' W 125°06'2 4.1
2017-Oct-16 18:30N 49°58' W 125°09'3 6.0
2017-Oct-16 18:00N 49°60' W 125°12'4 7.8
2017-Oct-16 17:30N 50°03' W 125°15'3 6.3
2017-Oct-16 17:00N 50°06' W 125°17'3 5.2
2017-Oct-16 16:30N 50°07' W 125°21'2 4.0
2017-Oct-16 16:00N 50°09' W 125°21'2 3.9
2017-Oct-16 15:30N 50°11' W 125°22'2 3.8
2017-Oct-16 15:00N 50°13' W 125°23'1 2.6
2017-Oct-16 14:30N 50°14' W 125°23'2 2.5
2017-Oct-16 13:30N 50°17' W 125°24'2 3.7
2017-Oct-16 13:00N 50°19' W 125°25'2 3.5
2017-Oct-16 12:30N 50°20' W 125°26'50 3.6
2017-Oct-15 22:40N 50°32' W 126°43'2 4.8
2017-Oct-15 22:11N 50°33' W 126°46'1 4.9
2017-Oct-15 22:00N 50°33' W 126°47'3 4.8
2017-Oct-15 21:27N 50°36' W 126°49'8 4.5
2017-Oct-15 19:35N 50°42' W 126°57'11 5.1
2017-Oct-15 17:31N 50°47' W 127°12'0 4.8
2017-Oct-15 17:30N 50°47' W 127°12'3 4.9
2017-Oct-15 16:58N 50°49' W 127°14'2 5.1
2017-Oct-15 16:30N 50°51' W 127°17'3 5.3
2017-Oct-15 16:00N 50°53' W 127°20'3 5.1
2017-Oct-15 15:30N 50°54' W 127°24'3 6.0
2017-Oct-15 15:00N 50°56' W 127°27'6 5.5
2017-Oct-15 14:00N 50°60' W 127°34'3 5.0
2017-Oct-15 13:30N 51°02' W 127°37'3 5.1
2017-Oct-15 13:00N 51°03' W 127°40'2 4.9
2017-Oct-15 12:30N 51°04' W 127°43'2 4.7
2017-Oct-15 12:00N 51°06' W 127°46'2 4.2
2017-Oct-15 11:30N 51°07' W 127°49'2 4.5
2017-Oct-15 10:59N 51°09' W 127°52'12 4.6
2017-Oct-15 08:22N 51°21' W 127°53'3 5.6
2017-Oct-15 07:53N 51°23' W 127°51'2 5.0
2017-Oct-15 07:26N 51°26' W 127°51'3 5.2
2017-Oct-15 06:51N 51°29' W 127°51'2 5.1
2017-Oct-15 06:30N 51°30' W 127°51'3 5.1
2017-Oct-15 06:00N 51°33' W 127°52'3 5.4
2017-Oct-15 05:30N 51°36' W 127°53'2 4.9
2017-Oct-15 05:00N 51°38' W 127°54'2 5.0
2017-Oct-15 04:30N 51°40' W 127°55'3 5.5
2017-Oct-15 04:00N 51°43' W 127°56'2 4.8
2017-Oct-15 03:30N 51°45' W 127°57'2 4.9
2017-Oct-15 03:00N 51°48' W 127°57'2 4.9
2017-Oct-15 02:30N 51°50' W 127°57'2 4.9
2017-Oct-15 02:00N 51°53' W 127°57'3 5.0
2017-Oct-15 01:30N 51°55' W 127°57'2 4.8
2017-Oct-15 01:00N 51°57' W 127°56'2 4.3
2017-Oct-15 00:30N 51°60' W 127°56'2 4.2
2017-Oct-15 00:00N 52°02' W 127°56'2 4.6
2017-Oct-14 23:30N 52°04' W 127°57'4 5.9
2017-Oct-14 22:54N 52°05' W 128°02'2 6.0
2017-Oct-14 22:30N 52°05' W 128°06'3 5.2
2017-Oct-14 22:00N 52°07' W 128°08'2 4.3
2017-Oct-14 21:30N 52°10' W 128°08'2 4.2
2017-Oct-14 20:57N 52°12' W 128°06'2 4.5
2017-Oct-14 20:29N 52°13' W 128°08'2 5.2
2017-Oct-14 20:00N 52°14' W 128°12'3 5.0
2017-Oct-14 19:29N 52°15' W 128°16'4 5.6
2017-Oct-14 18:50N 52°15' W 128°22'10 3.9
2017-Oct-14 16:10N 52°24' W 128°31'1 5.6
2017-Oct-14 15:58N 52°25' W 128°30'97 5.1
2017-Oct-13 20:51N 53°47' W 129°56'2 5.2
2017-Oct-13 20:29N 53°48' W 129°59'3 5.8
2017-Oct-13 19:59N 53°51' W 130°02'3 5.9
2017-Oct-13 19:30N 53°53' W 130°05'3 5.7
2017-Oct-13 19:00N 53°54' W 130°09'3 5.3
2017-Oct-13 18:30N 53°56' W 130°12'3 6.1
2017-Oct-13 18:00N 53°59' W 130°13'3 5.9
2017-Oct-13 17:30N 54°02' W 130°14'3 5.7
2017-Oct-13 17:00N 54°04' W 130°17'3 5.4
2017-Oct-13 16:30N 54°06' W 130°21'3 5.6
2017-Oct-13 16:00N 54°08' W 130°25'3 5.7
2017-Oct-13 15:30N 54°08' W 130°30'3 5.6
2017-Oct-13 15:00N 54°10' W 130°34'3 5.7
2017-Oct-13 14:30N 54°12' W 130°38'3 5.8
2017-Oct-13 14:00N 54°13' W 130°42'3 6.0
2017-Oct-13 13:30N 54°15' W 130°46'3 6.4
2017-Oct-13 13:00N 54°17' W 130°50'3 5.6
2017-Oct-13 12:30N 54°19' W 130°54'3 5.4
2017-Oct-13 12:01N 54°19' W 130°58'3 5.0
2017-Oct-13 11:30N 54°19' W 131°03'3 6.6
2017-Oct-13 11:00N 54°19' W 131°08'4 6.8
2017-Oct-13 10:29N 54°19' W 131°14'3 6.8
2017-Oct-13 10:00N 54°20' W 131°20'3 6.3
2017-Oct-13 09:28N 54°19' W 131°26'  
Track history (hours):
 
Tides and Currents Weather Stations Pressure Air Temp Water Temp Dewpoint Dewpoint Depression Visibility Wind Speed Wind Dir Waves Ship Positions

Dd Catherwood

Last reported at 2017-Oct-20 01:30 UTC. Time now 2017-Oct-20 01:46 UTC.
Position N 49°12' W 123°04'.

Length 21 m; draft 3.5 m.

Type: Towing. MMSI: 316006155.

Date/timePositionNaut miles runAvg speedWind from/ knotsBaromVisibWave heightAir tempDewpointWater temp
2017-Oct-20 01:30N 49°12' W 123°04'0 0.0
2017-Oct-20 01:00N 49°12' W 123°04'0 0.0
2017-Oct-20 00:30N 49°12' W 123°04'2 3.7
2017-Oct-20 00:01N 49°12' W 123°01'3 3.2
2017-Oct-19 23:05N 49°12' W 122°56'0 2.5
2017-Oct-19 23:00N 49°12' W 122°56'1 2.8
2017-Oct-19 22:30N 49°12' W 122°54'0 0.2
2017-Oct-19 22:00N 49°12' W 122°54'0 0.3
2017-Oct-19 21:29N 49°12' W 122°54'0 0.4
2017-Oct-19 21:00N 49°12' W 122°54'0 0.0
2017-Oct-19 20:30N 49°12' W 122°54'0 0.0
2017-Oct-19 20:00N 49°12' W 122°54'0 0.0
2017-Oct-19 19:30N 49°12' W 122°54'0 0.0
2017-Oct-19 19:00N 49°12' W 122°54'0 0.0
2017-Oct-19 18:30N 49°12' W 122°54'0 0.0
2017-Oct-19 18:00N 49°12' W 122°54'0 0.0
2017-Oct-19 17:30N 49°12' W 122°54'0 0.0
2017-Oct-19 17:00N 49°12' W 122°54'0 0.0
2017-Oct-19 16:30N 49°12' W 122°54'0 0.0
2017-Oct-19 16:00N 49°12' W 122°54'0 0.1
2017-Oct-19 15:30N 49°12' W 122°54'1 2.6
2017-Oct-19 14:59N 49°12' W 122°56'1 0.1
2017-Oct-19 08:03N 49°12' W 122°57'0 6.0
2017-Oct-19 07:59N 49°12' W 122°57'2 5.0
2017-Oct-19 07:30N 49°12' W 123°01'2 3.9
2017-Oct-19 07:00N 49°12' W 123°04'0 0.0
2017-Oct-19 06:30N 49°12' W 123°04'0 0.0
2017-Oct-19 06:00N 49°12' W 123°04'0 0.0
2017-Oct-19 05:30N 49°12' W 123°04'0 0.0
2017-Oct-19 05:00N 49°12' W 123°04'0 0.0
2017-Oct-19 04:30N 49°12' W 123°04'0 0.0
2017-Oct-18 09:21N 49°12' W 123°04'1 3.6
2017-Oct-18 09:00N 49°12' W 123°06'4 7.4
2017-Oct-18 08:31N 49°13' W 123°11'4 8.3
2017-Oct-18 08:00N 49°15' W 123°16'510.5
2017-Oct-18 07:30N 49°18' W 123°23'611.2
2017-Oct-18 07:00N 49°20' W 123°31'2 4.3
2017-Oct-18 06:30N 49°21' W 123°34'0 0.6
2017-Oct-18 06:00N 49°22' W 123°34'3 5.0
2017-Oct-18 05:30N 49°22' W 123°38'3 6.7
2017-Oct-18 05:00N 49°23' W 123°42'3 6.8
2017-Oct-18 04:30N 49°25' W 123°47'3 6.4
2017-Oct-18 04:00N 49°25' W 123°52'3 6.1
2017-Oct-18 03:30N 49°26' W 123°57'3 5.9
2017-Oct-18 03:00N 49°27' W 124°01'3 6.0
2017-Oct-18 02:30N 49°28' W 124°05'3 6.1
2017-Oct-18 02:00N 49°29' W 124°09'3 6.8
2017-Oct-18 01:30N 49°31' W 124°14'3 6.7
2017-Oct-18 01:00N 49°33' W 124°18'3 6.3
2017-Oct-18 00:30N 49°34' W 124°23'3 6.4
2017-Oct-18 00:00N 49°36' W 124°27'3 6.2
2017-Oct-17 23:30N 49°38' W 124°30'3 6.0
2017-Oct-17 23:00N 49°40' W 124°34'3 5.8
2017-Oct-17 22:30N 49°42' W 124°37'3 5.8
2017-Oct-17 22:00N 49°44' W 124°41'3 5.8
2017-Oct-17 21:30N 49°46' W 124°44'3 5.4
2017-Oct-17 21:00N 49°48' W 124°46'3 5.6
2017-Oct-17 20:30N 49°50' W 124°49'3 6.0
2017-Oct-17 20:00N 49°52' W 124°53'3 6.3
2017-Oct-17 19:30N 49°55' W 124°55'3 6.4
2017-Oct-17 19:00N 49°57' W 124°58'3 6.5
2017-Oct-17 18:30N 49°60' W 125°02'3 6.5
2017-Oct-17 18:00N 50°02' W 125°05'3 6.4
2017-Oct-17 17:30N 50°05' W 125°06'3 5.9
2017-Oct-17 17:00N 50°08' W 125°05'3 6.1
2017-Oct-17 16:30N 50°10' W 125°01'3 5.5
2017-Oct-17 16:00N 50°13' W 125°01'3 5.7
2017-Oct-17 15:30N 50°15' W 125°01'3 6.0
2017-Oct-17 15:00N 50°18' W 125°04'3 5.8
2017-Oct-17 14:30N 50°20' W 125°06'0 0.9
2017-Oct-17 14:00N 50°20' W 125°06'2 3.2
2017-Oct-17 13:30N 50°19' W 125°05'1 2.9
2017-Oct-17 13:00N 50°18' W 125°03'1 2.8
2017-Oct-17 12:30N 50°16' W 125°01'1 2.4
2017-Oct-17 12:00N 50°16' W 124°60'1 2.1
2017-Oct-17 11:30N 50°15' W 125°00'1 1.5
2017-Oct-17 11:00N 50°16' W 125°01'1 2.1
2017-Oct-17 10:30N 50°16' W 125°02'1 2.1
2017-Oct-17 10:00N 50°17' W 125°03'1 2.2
2017-Oct-17 09:30N 50°18' W 125°04'1 2.3
2017-Oct-17 09:00N 50°19' W 125°05'1 1.7
2017-Oct-17 08:30N 50°20' W 125°06'1 1.8
2017-Oct-17 08:00N 50°20' W 125°07'1 2.0
2017-Oct-17 07:30N 50°21' W 125°07'2 4.1
2017-Oct-17 07:00N 50°19' W 125°05'2 4.0
2017-Oct-17 06:30N 50°19' W 125°02'2 3.9
2017-Oct-17 06:00N 50°20' W 125°00'2 4.4
2017-Oct-17 05:31N 50°19' W 124°57'2 3.7
2017-Oct-17 05:00N 50°17' W 124°58'2 3.6
2017-Oct-17 04:30N 50°16' W 125°00'2 3.1
2017-Oct-17 04:00N 50°17' W 125°02'1 2.6
2017-Oct-17 03:30N 50°18' W 125°03'1 2.5
2017-Oct-17 03:00N 50°19' W 125°05'1 2.1
2017-Oct-17 02:30N 50°19' W 125°06'1 1.7
2017-Oct-17 02:00N 50°20' W 125°07'0 1.0
2017-Oct-17 01:30N 50°21' W 125°06'2 4.5
2017-Oct-17 01:00N 50°19' W 125°04'2 3.8
2017-Oct-17 00:30N 50°19' W 125°01'2 4.3
2017-Oct-17 00:01N 50°20' W 124°58'2 4.6
2017-Oct-16 23:30N 50°17' W 124°58'2 4.9
2017-Oct-16 23:00N 50°15' W 125°00'3 5.3
2017-Oct-16 22:30N 50°13' W 125°01'3 5.3
2017-Oct-16 22:00N 50°10' W 125°01'3 5.7
2017-Oct-16 21:30N 50°09' W 125°04'3 5.6
2017-Oct-16 21:00N 50°06' W 125°07'3 6.2
2017-Oct-16 20:30N 50°03' W 125°06'3 6.7
2017-Oct-16 20:00N 50°00' W 125°04'3 6.4
2017-Oct-16 19:30N 49°57' W 125°03'2 3.8
2017-Oct-16 19:00N 49°57' W 125°06'2 4.1
2017-Oct-16 18:30N 49°58' W 125°09'3 6.0
2017-Oct-16 18:00N 49°60' W 125°12'4 7.8
2017-Oct-16 17:30N 50°03' W 125°15'3 6.3
2017-Oct-16 17:00N 50°06' W 125°17'3 5.2
2017-Oct-16 16:30N 50°07' W 125°21'2 4.0
2017-Oct-16 16:00N 50°09' W 125°21'2 3.9
2017-Oct-16 15:30N 50°11' W 125°22'2 3.8
2017-Oct-16 15:00N 50°13' W 125°23'1 2.6
2017-Oct-16 14:30N 50°14' W 125°23'2 2.5
2017-Oct-16 13:30N 50°17' W 125°24'2 3.7
2017-Oct-16 13:00N 50°19' W 125°25'2 3.5
2017-Oct-16 12:30N 50°20' W 125°26'50 3.6
2017-Oct-15 22:40N 50°32' W 126°43'2 4.8
2017-Oct-15 22:11N 50°33' W 126°46'1 4.9
2017-Oct-15 22:00N 50°33' W 126°47'3 4.8
2017-Oct-15 21:27N 50°36' W 126°49'8 4.5
2017-Oct-15 19:35N 50°42' W 126°57'11 5.1
2017-Oct-15 17:31N 50°47' W 127°12'0 4.8
2017-Oct-15 17:30N 50°47' W 127°12'3 4.9
2017-Oct-15 16:58N 50°49' W 127°14'2 5.1
2017-Oct-15 16:30N 50°51' W 127°17'3 5.3
2017-Oct-15 16:00N 50°53' W 127°20'3 5.1
2017-Oct-15 15:30N 50°54' W 127°24'3 6.0
2017-Oct-15 15:00N 50°56' W 127°27'6 5.5
2017-Oct-15 14:00N 50°60' W 127°34'3 5.0
2017-Oct-15 13:30N 51°02' W 127°37'3 5.1
2017-Oct-15 13:00N 51°03' W 127°40'2 4.9
2017-Oct-15 12:30N 51°04' W 127°43'2 4.7
2017-Oct-15 12:00N 51°06' W 127°46'2 4.2
2017-Oct-15 11:30N 51°07' W 127°49'2 4.5
2017-Oct-15 10:59N 51°09' W 127°52'12 4.6
2017-Oct-15 08:22N 51°21' W 127°53'3 5.6
2017-Oct-15 07:53N 51°23' W 127°51'2 5.0
2017-Oct-15 07:26N 51°26' W 127°51'3 5.2
2017-Oct-15 06:51N 51°29' W 127°51'2 5.1
2017-Oct-15 06:30N 51°30' W 127°51'3 5.1
2017-Oct-15 06:00N 51°33' W 127°52'3 5.4
2017-Oct-15 05:30N 51°36' W 127°53'2 4.9
2017-Oct-15 05:00N 51°38' W 127°54'2 5.0
2017-Oct-15 04:30N 51°40' W 127°55'3 5.5
2017-Oct-15 04:00N 51°43' W 127°56'2 4.8
2017-Oct-15 03:30N 51°45' W 127°57'2 4.9
2017-Oct-15 03:00N 51°48' W 127°57'2 4.9
2017-Oct-15 02:30N 51°50' W 127°57'2 4.9
2017-Oct-15 02:00N 51°53' W 127°57'3 5.0
2017-Oct-15 01:30N 51°55' W 127°57'2 4.8
2017-Oct-15 01:00N 51°57' W 127°56'2 4.3
2017-Oct-15 00:30N 51°60' W 127°56'2 4.2
2017-Oct-15 00:00N 52°02' W 127°56'2 4.6
2017-Oct-14 23:30N 52°04' W 127°57'4 5.9
2017-Oct-14 22:54N 52°05' W 128°02'2 6.0
2017-Oct-14 22:30N 52°05' W 128°06'3 5.2
2017-Oct-14 22:00N 52°07' W 128°08'2 4.3
2017-Oct-14 21:30N 52°10' W 128°08'2 4.2
2017-Oct-14 20:57N 52°12' W 128°06'2 4.5
2017-Oct-14 20:29N 52°13' W 128°08'2 5.2
2017-Oct-14 20:00N 52°14' W 128°12'3 5.0
2017-Oct-14 19:29N 52°15' W 128°16'4 5.6
2017-Oct-14 18:50N 52°15' W 128°22'10 3.9
2017-Oct-14 16:10N 52°24' W 128°31'1 5.6
2017-Oct-14 15:58N 52°25' W 128°30'97 5.1
2017-Oct-13 20:51N 53°47' W 129°56'2 5.2
2017-Oct-13 20:29N 53°48' W 129°59'3 5.8
2017-Oct-13 19:59N 53°51' W 130°02'3 5.9
2017-Oct-13 19:30N 53°53' W 130°05'3 5.7
2017-Oct-13 19:00N 53°54' W 130°09'3 5.3
2017-Oct-13 18:30N 53°56' W 130°12'3 6.1
2017-Oct-13 18:00N 53°59' W 130°13'3 5.9
2017-Oct-13 17:30N 54°02' W 130°14'3 5.7
2017-Oct-13 17:00N 54°04' W 130°17'3 5.4
2017-Oct-13 16:30N 54°06' W 130°21'3 5.6
2017-Oct-13 16:00N 54°08' W 130°25'3 5.7
2017-Oct-13 15:30N 54°08' W 130°30'3 5.6
2017-Oct-13 15:00N 54°10' W 130°34'3 5.7
2017-Oct-13 14:30N 54°12' W 130°38'3 5.8
2017-Oct-13 14:00N 54°13' W 130°42'3 6.0
2017-Oct-13 13:30N 54°15' W 130°46'3 6.4
2017-Oct-13 13:00N 54°17' W 130°50'3 5.6
2017-Oct-13 12:30N 54°19' W 130°54'3 5.4
2017-Oct-13 12:01N 54°19' W 130°58'3 5.0
2017-Oct-13 11:30N 54°19' W 131°03'3 6.6
2017-Oct-13 11:00N 54°19' W 131°08'4 6.8
2017-Oct-13 10:29N 54°19' W 131°14'3 6.8
2017-Oct-13 10:00N 54°20' W 131°20'3 6.3
2017-Oct-13 09:28N 54°19' W 131°26'  

Dump ship's entire track history